Trufant, Michigan
Current Conditions -  °F | °C
As of 1:35 AM on Saturday 25 Oct 2014 (Local Time) from KRQB Reporting Station
Moderate Fog Moderate Fog  
Wind Chill: 43°   Ceiling: 300
Heat Index: 43°   Visibility: 0mi
Dew Point: 43°   Wind: 0mph
Humidity: 100%   Direction: NA
Pressure: 29.87"   Gusts: NA
Location:  43.31°N, 85.35°W
Report Text: KRQB 250535Z AUTO 00000KT M1/4SM FG OVC003 06/06 A2987 RMK AO2 T00590059
Loading
Personal Weather Stations






























Interactive Weather Map
Tropical Storm Tracking
New forecast layout! Learn more

10-Day Weather Forecast

Advertisements
Track Severe Weather on mobile